Time;durP1;ratioP1;P1;durP2;ratioP2;P2;SDS_P1;SDS_P2;PMS_P1;PMS_P2;Temp;Humidity;BMP_temperature;BMP_pressure;BME280_temperature;BME280_humidity;BME280_pressure;Samples;Min_cycle;Max_cycle;Signal;HPM_P1;HPM_P2
2022/04/04 00:01:29;;;;;;;8.40;5.22;;;1.80;99.90;;;;;;4996911;28;20045;-78
2022/04/04 00:03:56;;;;;;;9.73;5.55;;;1.80;99.90;;;;;;5014835;28;20015;-78
2022/04/04 00:06:22;;;;;;;7.60;4.93;;;1.80;99.90;;;;;;5014605;28;20026;-82
2022/04/04 00:08:48;;;;;;;10.18;5.45;;;1.80;99.90;;;;;;5016571;28;20037;-80
2022/04/04 00:11:15;;;;;;;11.00;5.70;;;1.80;99.90;;;;;;4998868;28;20022;-82
2022/04/04 00:13:41;;;;;;;8.43;5.63;;;1.70;99.90;;;;;;5003768;28;20018;-80
2022/04/04 00:16:07;;;;;;;10.70;5.45;;;1.70;99.90;;;;;;5002173;28;20056;-81
2022/04/04 00:18:34;;;;;;;11.25;6.43;;;1.60;99.90;;;;;;5008508;28;20034;-81
2022/04/04 00:21:00;;;;;;;12.02;6.63;;;1.60;99.90;;;;;;4996572;28;20033;-83
2022/04/04 00:23:26;;;;;;;10.95;6.28;;;1.50;99.90;;;;;;5013259;28;20018;-81
2022/04/04 00:25:53;;;;;;;11.90;6.97;;;1.40;99.90;;;;;;4997657;28;20033;-80
2022/04/04 00:28:19;;;;;;;12.63;7.00;;;1.30;99.90;;;;;;5013121;28;20057;-80
2022/04/04 00:30:45;;;;;;;11.93;6.63;;;1.30;99.90;;;;;;5000892;28;20025;-81
2022/04/04 00:33:11;;;;;;;11.05;7.00;;;1.30;99.90;;;;;;5001649;28;20529;-81
2022/04/04 00:35:38;;;;;;;12.65;6.60;;;1.40;99.90;;;;;;4999236;28;20030;-82
2022/04/04 00:38:08;;;;;;;11.95;7.57;;;1.40;99.90;;;;;;5008823;28;20026;-82
2022/04/04 00:40:34;;;;;;;10.95;6.28;;;1.40;99.90;;;;;;5007607;28;20053;-80
2022/04/04 00:43:00;;;;;;;14.50;7.10;;;1.40;99.90;;;;;;5007759;28;20690;-78
2022/04/04 00:45:26;;;;;;;13.48;6.97;;;1.40;99.90;;;;;;5018950;28;20077;-80
2022/04/04 00:47:52;;;;;;;13.32;7.22;;;1.30;99.90;;;;;;5000949;28;20053;-79
2022/04/04 00:50:18;;;;;;;13.60;6.38;;;1.40;99.90;;;;;;5006461;28;20034;-80
2022/04/04 00:52:44;;;;;;;12.27;6.68;;;0.40;99.90;;;;;;5024723;28;20032;-81
2022/04/04 00:55:11;;;;;;;14.05;7.13;;;1.40;99.90;;;;;;5000803;28;20576;-81
2022/04/04 00:57:37;;;;;;;13.20;7.20;;;1.30;99.90;;;;;;5003954;28;20036;-79
2022/04/04 01:00:06;;;;;;;13.75;7.55;;;1.30;99.90;;;;;;5009601;28;20025;-81
2022/04/04 01:02:32;;;;;;;14.20;7.75;;;;;;;;;;5020388;28;20530;-82
2022/04/04 01:04:58;;;;;;;12.55;7.32;;;1.30;99.90;;;;;;5007047;28;20558;-81
2022/04/04 01:07:23;;;;;;;12.75;7.93;;;1.30;99.90;;;;;;5009683;28;20033;-78
2022/04/04 01:09:50;;;;;;;13.07;7.65;;;1.30;99.90;;;;;;5014639;28;20030;-78
2022/04/04 01:12:17;;;;;;;12.73;6.90;;;1.30;99.90;;;;;;5029548;28;20049;-78
2022/04/04 01:14:47;;;;;;;16.75;8.73;;;1.30;99.90;;;;;;4999781;28;20034;-80
2022/04/04 01:17:14;;;;;;;14.70;8.88;;;1.20;99.90;;;;;;5006023;28;20534;-81
2022/04/04 01:19:41;;;;;;;15.48;8.43;;;1.20;99.90;;;;;;5010057;28;20033;-78
2022/04/04 01:22:09;;;;;;;18.35;9.20;;;1.10;99.90;;;;;;5026111;28;20034;-79
2022/04/04 01:24:38;;;;;;;13.75;8.02;;;1.10;99.90;;;;;;5002197;28;21283;-80
2022/04/04 01:27:04;;;;;;;15.00;9.13;;;1.80;99.90;;;;;;5016946;28;20041;-80
2022/04/04 01:29:30;;;;;;;16.90;8.90;;;1.10;99.90;;;;;;5000106;28;20292;-79
2022/04/04 01:31:56;;;;;;;13.93;7.60;;;1.10;99.90;;;;;;5004777;28;20033;-79
2022/04/04 01:34:22;;;;;;;13.65;8.07;;;1.10;99.90;;;;;;5012366;28;20038;-79
2022/04/04 01:36:51;;;;;;;14.32;8.68;;;1.10;99.90;;;;;;5020344;28;20026;-80
2022/04/04 01:39:18;;;;;;;13.85;8.90;;;1.10;99.90;;;;;;5005516;28;20036;-79
2022/04/04 01:41:44;;;;;;;17.33;9.52;;;1.10;99.90;;;;;;5003615;28;20080;-79
2022/04/04 01:44:11;;;;;;;16.85;8.85;;;1.10;99.90;;;;;;4994416;28;20049;-83
2022/04/04 01:46:37;;;;;;;16.77;9.65;;;1.10;99.90;;;;;;5005551;28;20025;-81
2022/04/04 01:49:04;;;;;;;15.52;9.65;;;1.10;99.90;;;;;;5001047;28;20036;-80
2022/04/04 01:51:34;;;;;;;14.32;9.63;;;1.00;99.90;;;;;;5009764;28;20026;-80
2022/04/04 01:54:00;;;;;;;17.00;9.57;;;0.90;99.90;;;;;;4995368;28;20030;-81
2022/04/04 01:56:27;;;;;;;17.83;9.73;;;0.80;99.90;;;;;;5020576;28;20034;-80
2022/04/04 01:58:53;;;;;;;15.88;9.02;;;2.00;99.90;;;;;;5004479;28;20494;-82
2022/04/04 02:01:22;;;;;;;14.70;9.52;;;0.90;99.90;;;;;;5017920;28;20151;-81
2022/04/04 02:03:51;;;;;;;15.20;9.68;;;0.90;99.90;;;;;;5011530;28;20034;-80
2022/04/04 02:06:20;;;;;;;16.45;9.23;;;0.90;99.90;;;;;;5004393;28;20097;-82
2022/04/04 02:08:47;;;;;;;16.55;9.50;;;0.90;99.90;;;;;;5017418;28;20111;-78
2022/04/04 02:11:14;;;;;;;18.27;9.32;;;0.90;99.90;;;;;;5001808;28;20567;-83
2022/04/04 02:13:41;;;;;;;18.20;9.57;;;0.90;99.90;;;;;;5019676;28;20182;-82
2022/04/04 02:16:07;;;;;;;16.75;9.52;;;0.80;99.90;;;;;;5018522;28;20057;-80
2022/04/04 02:18:34;;;;;;;17.20;9.60;;;0.70;99.90;;;;;;5025864;28;20547;-81
2022/04/04 02:21:01;;;;;;;18.27;9.05;;;0.70;99.90;;;;;;5027620;28;20038;-80
2022/04/04 02:23:27;;;;;;;16.35;9.65;;;0.70;99.90;;;;;;5008808;28;20030;-80
2022/04/04 02:25:58;;;;;;;15.50;9.05;;;1.80;99.90;;;;;;5005218;28;20168;-81
2022/04/04 02:28:25;;;;;;;17.65;9.38;;;0.70;99.90;;;;;;5008212;28;20035;-79
2022/04/04 02:30:52;;;;;;;16.77;9.70;;;0.70;99.90;;;;;;5016192;28;20041;-81
2022/04/04 02:33:20;;;;;;;16.65;9.45;;;0.70;99.90;;;;;;5003596;28;20026;-81
2022/04/04 02:35:47;;;;;;;17.13;9.60;;;0.70;99.90;;;;;;5001744;28;20033;-81
2022/04/04 02:38:13;;;;;;;15.05;9.05;;;0.70;99.90;;;;;;5001766;28;20024;-80
2022/04/04 02:40:40;;;;;;;19.73;9.73;;;0.70;99.90;;;;;;4987028;28;20030;-78
2022/04/04 02:43:06;;;;;;;20.63;8.88;;;0.70;99.90;;;;;;5019435;28;20034;-79
2022/04/04 02:45:33;;;;;;;17.92;9.93;;;0.60;99.90;;;;;;5004903;28;20124;-81
2022/04/04 02:47:59;;;;;;;17.70;9.75;;;0.70;99.90;;;;;;5006817;28;20029;-81
2022/04/04 02:50:26;;;;;;;14.32;9.10;;;0.70;99.90;;;;;;5004121;28;20044;-81
2022/04/04 02:52:52;;;;;;;17.75;9.15;;;0.70;99.90;;;;;;5031183;28;20097;-78
2022/04/04 02:58:03;;;;;;;17.38;9.45;;;0.80;99.90;;;;;;5035072;28;20020;-81
2022/04/04 03:00:29;;;;;;;14.93;8.43;;;0.70;99.90;;;;;;5032960;28;20064;-80
2022/04/04 03:02:57;;;;;;;14.30;8.40;;;0.70;99.90;;;;;;4996889;28;20121;-82
2022/04/04 03:05:23;;;;;;;14.80;8.25;;;0.60;99.90;;;;;;5018266;28;20038;-82
2022/04/04 03:07:50;;;;;;;16.35;8.93;;;0.60;99.90;;;;;;5007929;28;20084;-79
2022/04/04 03:10:16;;;;;;;16.33;8.75;;;0.50;99.90;;;;;;5003678;28;20038;-79
2022/04/04 03:12:44;;;;;;;13.40;8.48;;;0.50;99.90;;;;;;5001903;28;20036;-78
2022/04/04 03:15:12;;;;;;;13.10;8.15;;;0.50;99.90;;;;;;5003308;28;20033;-82
2022/04/04 03:17:39;;;;;;;14.65;8.63;;;0.50;99.90;;;;;;5012893;28;20121;-80
2022/04/04 03:20:09;;;;;;;16.70;8.98;;;0.40;99.90;;;;;;5016075;28;20044;-80
2022/04/04 03:22:40;;;;;;;14.60;8.67;;;0.30;99.90;;;;;;5020983;28;20094;-81
2022/04/04 03:25:08;;;;;;;14.70;8.70;;;0.30;99.90;;;;;;5003512;28;20280;-83
2022/04/04 03:27:36;;;;;;;15.52;8.77;;;0.30;99.90;;;;;;5006331;28;23669;-79
2022/04/04 03:30:06;;;;;;;15.27;8.40;;;0.30;99.90;;;;;;4999958;28;20497;-82
2022/04/04 03:32:33;;;;;;;14.57;8.55;;;0.20;99.90;;;;;;5019418;28;20037;-79
2022/04/04 03:34:59;;;;;;;16.77;8.88;;;0.40;99.90;;;;;;5002759;28;20085;-80
2022/04/04 03:37:26;;;;;;;16.00;8.70;;;1.30;99.90;;;;;;4999264;28;20662;-79
2022/04/04 03:39:52;;;;;;;17.85;9.05;;;0.20;99.90;;;;;;5015966;28;20026;-83
2022/04/04 03:42:19;;;;;;;16.25;8.68;;;0.20;99.90;;;;;;5003669;28;20053;-78
2022/04/04 03:44:45;;;;;;;13.73;8.73;;;0.30;99.90;;;;;;5001818;28;20041;-79
2022/04/04 03:47:12;;;;;;;19.52;10.07;;;0.30;99.90;;;;;;5024308;28;20332;-81
2022/04/04 03:49:38;;;;;;;13.52;8.00;;;0.30;99.90;;;;;;5007944;28;20034;-83
2022/04/04 03:52:06;;;;;;;16.23;9.55;;;0.30;99.90;;;;;;5021399;28;20758;-81
2022/04/04 03:54:32;;;;;;;16.73;9.07;;;0.30;99.90;;;;;;5022435;28;20041;-82
2022/04/04 03:56:58;;;;;;;16.85;9.15;;;0.40;99.90;;;;;;5003747;28;20040;-80
2022/04/04 03:59:25;;;;;;;18.45;8.88;;;0.40;99.90;;;;;;5011361;28;20021;-82
2022/04/04 04:01:51;;;;;;;17.13;9.27;;;;;;;;;;5020009;28;20037;-79
2022/04/04 04:04:17;;;;;;;15.52;9.13;;;0.40;99.90;;;;;;5001543;28;20092;-79
2022/04/04 04:06:45;;;;;;;15.68;8.70;;;0.40;99.90;;;;;;5009997;28;20037;-80
2022/04/04 04:09:11;;;;;;;14.65;8.70;;;0.40;99.90;;;;;;5026628;28;20141;-79
2022/04/04 04:11:38;;;;;;;12.95;8.00;;;0.40;99.90;;;;;;5001957;28;20050;-80
2022/04/04 04:14:04;;;;;;;27.70;15.00;;;0.50;99.90;;;;;;5023421;28;20033;-81
2022/04/04 04:16:31;;;;;;;16.75;9.35;;;0.40;99.90;;;;;;4991650;28;20046;-81
2022/04/04 04:18:56;;;;;;;14.73;9.10;;;0.40;99.90;;;;;;5024677;28;20027;-82
2022/04/04 04:21:23;;;;;;;16.00;8.82;;;0.40;99.90;;;;;;5021259;28;20076;-81
2022/04/04 04:23:51;;;;;;;15.93;9.20;;;1.10;99.90;;;;;;5013483;28;20034;-81
2022/04/04 04:26:17;;;;;;;16.40;9.02;;;0.20;99.90;;;;;;5020722;28;20120;-82
2022/04/04 04:28:45;;;;;;;15.48;9.05;;;0.20;99.90;;;;;;5025650;28;20080;-79
2022/04/04 04:31:13;;;;;;;19.00;11.18;;;0.30;99.90;;;;;;5033653;28;20157;-81
2022/04/04 04:33:38;;;;;;;15.88;9.52;;;0.30;99.90;;;;;;5010259;28;20065;-80
2022/04/04 04:36:05;;;;;;;18.27;9.43;;;0.30;99.90;;;;;;4991915;28;20053;-79
2022/04/04 04:38:31;;;;;;;17.75;9.90;;;0.20;99.90;;;;;;5019861;28;20061;-81
2022/04/04 04:40:58;;;;;;;20.20;10.10;;;0.20;99.90;;;;;;5006220;28;20033;-79
2022/04/04 04:43:24;;;;;;;15.02;9.07;;;0.30;99.90;;;;;;5026280;28;20049;-79
2022/04/04 04:45:50;;;;;;;16.05;8.70;;;0.20;99.90;;;;;;5006008;28;20038;-81
2022/04/04 04:48:16;;;;;;;19.17;9.73;;;0.20;99.90;;;;;;5006136;28;20026;-81
2022/04/04 04:50:43;;;;;;;16.30;9.32;;;0.20;99.90;;;;;;5026084;28;20482;-83
2022/04/04 04:53:08;;;;;;;18.17;9.80;;;0.20;99.90;;;;;;5008851;28;20026;-79
2022/04/04 04:55:34;;;;;;;18.73;9.75;;;1.40;99.90;;;;;;5010908;28;20038;-82
2022/04/04 04:58:00;;;;;;;17.88;9.57;;;0.20;99.90;;;;;;5024664;28;20033;-81
2022/04/04 05:00:29;;;;;;;15.77;9.63;;;0.20;99.90;;;;;;5018307;28;20026;-81
2022/04/04 05:05:41;;;;;;;15.63;9.52;;;0.10;99.90;;;;;;5026018;28;20064;-82
2022/04/04 05:08:07;;;;;;;17.15;9.15;;;0.00;99.90;;;;;;5016287;28;20014;-79
2022/04/04 05:10:33;;;;;;;19.40;9.68;;;0.10;99.90;;;;;;5007010;28;20090;-83
2022/04/04 05:12:59;;;;;;;19.55;9.68;;;0.10;99.90;;;;;;5006391;28;20062;-82
2022/04/04 05:15:25;;;;;;;19.13;9.48;;;0.10;99.90;;;;;;5010925;28;20191;-78
2022/04/04 05:17:52;;;;;;;19.35;9.73;;;0.10;99.90;;;;;;5008520;28;20030;-84
2022/04/04 05:20:21;;;;;;;15.85;10.25;;;0.10;99.90;;;;;;5014832;28;20033;-82
2022/04/04 05:22:48;;;;;;;16.15;9.68;;;0.10;99.90;;;;;;5007816;28;20026;-81
2022/04/04 05:25:14;;;;;;;19.70;9.88;;;0.10;99.90;;;;;;5022012;28;20030;-84
2022/04/04 05:28:17;;;;;;;22.55;9.65;;;0.10;99.90;;;;;;5009177;28;20111;-83
2022/04/04 05:31:14;;;;;;;20.50;10.63;;;0.20;99.90;;;;;;4994046;28;20052;-84
2022/04/04 05:34:10;;;;;;;20.90;10.02;;;0.20;99.90;;;;;;5049455;28;20037;-86
2022/04/04 05:37:34;;;;;;;18.23;10.13;;;0.20;99.90;;;;;;5017861;28;20026;-84
2022/04/04 05:48:15;;;;;;;19.30;9.75;;;0.50;99.90;;;;;;4953164;29;20063;-84
2022/04/04 05:52:05;;;;;;;23.38;10.00;;;0.50;99.90;;;;;;4957414;29;20112;-84
2022/04/04 05:55:51;;;;;;;20.00;10.35;;;0.60;99.90;;;;;;4940248;29;20055;-88
2022/04/04 05:59:33;;;;;;;17.30;9.95;;;1.60;99.90;;;;;;4890567;29;20029;-89
2022/04/04 06:16:15;;;;;;;17.92;10.25;;;-0.40;99.90;;;;;;4859752;29;20045;-87
2022/04/04 06:19:13;;;;;;;20.75;10.68;;;0.70;99.90;;;;;;4770831;30;20048;-87
2022/04/04 06:21:44;;;;;;;19.60;11.05;;;0.70;99.90;;;;;;4836109;29;20133;-86
2022/04/04 06:24:11;;;;;;;20.85;11.07;;;0.90;99.90;;;;;;4894435;29;20035;-87
2022/04/04 06:26:39;;;;;;;24.08;10.77;;;-0.20;99.90;;;;;;5016245;28;20045;-84
2022/04/04 06:29:09;;;;;;;23.95;13.38;;;0.90;99.90;;;;;;4992955;28;20034;-84
2022/04/04 06:31:39;;;;;;;19.38;11.20;;;0.90;99.90;;;;;;5023620;28;20081;-83
2022/04/04 06:34:05;;;;;;;21.92;10.88;;;0.90;99.90;;;;;;5014790;28;20026;-85
2022/04/04 06:36:32;;;;;;;17.98;10.32;;;3.50;99.90;;;;;;5010829;28;20022;-85
2022/04/04 06:38:58;;;;;;;18.00;10.55;;;1.10;99.90;;;;;;5011789;28;20129;-84
2022/04/04 06:41:24;;;;;;;17.30;10.02;;;1.10;99.90;;;;;;5021766;28;20033;-84
2022/04/04 06:43:50;;;;;;;17.95;10.82;;;1.20;99.90;;;;;;5016567;28;20030;-84
2022/04/04 06:46:17;;;;;;;16.35;10.45;;;1.30;99.90;;;;;;5004585;28;20040;-83
2022/04/04 06:48:45;;;;;;;24.30;10.73;;;1.40;99.90;;;;;;5026998;28;20033;-84
2022/04/04 06:51:11;;;;;;;19.20;10.38;;;1.40;99.90;;;;;;5006960;28;20022;-81
2022/04/04 06:53:37;;;;;;;92.22;78.00;;;1.50;99.90;;;;;;5011000;28;20465;-83
2022/04/04 06:56:04;;;;;;;21.55;11.73;;;1.50;99.90;;;;;;4991371;28;20037;-82
2022/04/04 06:58:30;;;;;;;19.55;11.07;;;1.50;99.90;;;;;;4998116;28;20037;-83
2022/04/04 07:00:57;;;;;;;17.67;10.30;;;1.50;99.90;;;;;;5011498;28;20026;-85
2022/04/04 07:03:23;;;;;;;18.67;10.57;;;1.60;99.90;;;;;;5000250;28;20025;-82
2022/04/04 07:05:49;;;;;;;19.38;10.57;;;1.60;99.90;;;;;;4998430;28;20036;-81
2022/04/04 07:08:15;;;;;;;18.40;10.10;;;1.70;99.90;;;;;;5020916;28;20022;-84
2022/04/04 07:10:41;;;;;;;16.83;10.30;;;1.80;99.90;;;;;;5001051;28;20025;-82
2022/04/04 07:13:07;;;;;;;15.57;9.80;;;1.90;99.90;;;;;;4996072;28;20041;-83
2022/04/04 07:15:33;;;;;;;16.83;10.40;;;2.00;99.90;;;;;;4998340;28;20022;-83
2022/04/04 07:17:59;;;;;;;17.88;10.40;;;2.20;99.90;;;;;;5004179;28;20022;-81
2022/04/04 07:20:26;;;;;;;18.27;9.68;;;2.40;99.90;;;;;;5000815;28;20410;-82
2022/04/04 07:22:51;;;;;;;17.70;10.57;;;2.60;99.90;;;;;;4995139;28;20050;-80
2022/04/04 07:25:17;;;;;;;17.05;9.98;;;2.60;99.90;;;;;;5015533;28;20528;-81
2022/04/04 07:27:46;;;;;;;18.85;10.10;;;2.70;99.90;;;;;;5002508;28;20034;-82
2022/04/04 07:30:18;;;;;;;17.73;10.02;;;2.70;99.90;;;;;;4999979;28;20047;-83
2022/04/04 07:32:45;;;;;;;18.70;10.02;;;2.70;99.90;;;;;;5000670;28;20034;-83
2022/04/04 07:35:11;;;;;;;17.40;9.93;;;2.80;99.90;;;;;;5006810;28;20040;-82
2022/04/04 07:37:42;;;;;;;18.40;11.07;;;3.40;99.90;;;;;;5006502;28;20036;-82
2022/04/04 07:40:14;;;;;;;19.80;10.23;;;5.20;99.90;;;;;;5023308;28;20018;-86
2022/04/04 07:42:41;;;;;;;16.10;9.77;;;3.20;99.90;;;;;;5022541;28;20029;-82
2022/04/04 07:45:17;;;;;;;17.85;9.50;;;3.30;99.90;;;;;;5019504;28;20094;-84
2022/04/04 07:47:45;;;;;;;15.48;9.32;;;3.50;99.90;;;;;;5007958;28;20045;-82
2022/04/04 07:50:13;;;;;;;18.77;9.75;;;3.70;99.90;;;;;;5004826;28;20025;-84
2022/04/04 07:52:40;;;;;;;15.20;9.68;;;4.00;99.90;;;;;;4985911;28;20022;-82
2022/04/04 07:55:07;;;;;;;17.70;9.77;;;4.10;99.90;;;;;;5090372;23;20489;-83
2022/04/04 07:57:34;;;;;;;13.43;9.48;;;4.10;99.90;;;;;;5034259;28;20021;-82
2022/04/04 08:00:00;;;;;;;15.38;8.90;;;4.30;99.90;;;;;;5014896;28;20116;-82
2022/04/04 08:02:27;;;;;;;20.80;11.73;;;4.20;99.90;;;;;;5010156;28;20608;-82
2022/04/04 08:04:53;;;;;;;18.00;10.05;;;4.50;99.90;;;;;;5017611;28;20025;-82
2022/04/04 08:07:19;;;;;;;15.00;10.02;;;4.70;99.90;;;;;;5040058;28;20037;-79
2022/04/04 08:09:46;;;;;;;14.20;9.25;;;5.50;99.90;;;;;;5013705;28;20037;-84
2022/04/04 08:12:13;;;;;;;17.70;9.35;;;4.90;99.90;;;;;;5025616;28;20065;-82
2022/04/04 08:14:39;;;;;;;13.13;9.35;;;5.20;99.90;;;;;;5005519;28;20034;-83
2022/04/04 08:17:06;;;;;;;16.27;9.40;;;5.30;99.90;;;;;;5008187;28;20277;-81
2022/04/04 08:19:32;;;;;;;12.05;8.70;;;5.30;99.90;;;;;;5015051;28;20039;-82
2022/04/04 08:21:59;;;;;;;11.93;7.47;;;5.40;99.90;;;;;;5030690;28;20034;-82
2022/04/04 08:24:25;;;;;;;11.30;7.03;;;5.70;98.80;;;;;;5003253;28;20081;-83
2022/04/04 08:26:51;;;;;;;10.20;6.38;;;5.90;96.00;;;;;;5013663;28;20266;-83
2022/04/04 08:29:17;;;;;;;9.13;6.00;;;6.20;91.90;;;;;;5013565;28;20037;-82
2022/04/04 08:31:43;;;;;;;9.32;5.60;;;6.30;90.00;;;;;;5013317;28;20025;-82
2022/04/04 08:34:10;;;;;;;11.88;6.25;;;6.30;89.40;;;;;;5015947;28;20084;-82
2022/04/04 08:36:37;;;;;;;16.38;6.07;;;6.30;88.90;;;;;;5019126;28;20361;-82
2022/04/04 08:39:10;;;;;;;10.95;7.00;;;7.60;87.40;;;;;;5013801;28;20026;-86
2022/04/04 08:41:41;;;;;;;9.73;6.63;;;6.70;86.40;;;;;;5038965;28;20037;-82
2022/04/04 08:44:28;;;;;;;8.57;6.38;;;6.90;85.80;;;;;;5026995;28;20397;-82
2022/04/04 08:47:27;;;;;;;8.95;5.78;;;7.20;83.60;;;;;;5029661;28;20033;-84
2022/04/04 08:49:54;;;;;;;7.55;5.68;;;7.20;79.60;;;;;;5008588;28;20378;-85
2022/04/04 08:52:23;;;;;;;8.02;5.30;;;7.30;79.80;;;;;;5039436;28;20033;-84
2022/04/04 08:54:52;;;;;;;8.00;5.65;;;7.40;78.10;;;;;;5027990;28;20026;-84
2022/04/04 08:57:20;;;;;;;11.18;5.65;;;7.50;76.70;;;;;;5027253;28;20520;-85
2022/04/04 09:00:06;;;;;;;9.60;5.82;;;7.70;75.40;;;;;;5023853;28;20025;-86
2022/04/04 09:02:56;;;;;;;7.30;4.82;;;7.70;74.50;;;;;;5023114;28;20222;-81
2022/04/04 09:05:24;;;;;;;8.98;5.25;;;7.80;73.30;;;;;;5044300;28;20052;-83
2022/04/04 09:08:04;;;;;;;6.82;4.60;;;7.80;72.90;;;;;;5030450;28;20517;-85
2022/04/04 09:10:39;;;;;;;7.18;3.83;;;8.00;71.20;;;;;;5033795;28;20030;-81
2022/04/04 09:13:12;;;;;;;7.25;4.20;;;8.00;69.10;;;;;;5018171;28;20069;-81
2022/04/04 09:15:56;;;;;;;7.65;4.53;;;8.00;68.40;;;;;;5013999;28;20093;-86
2022/04/04 09:18:37;;;;;;;6.78;3.97;;;8.20;68.30;;;;;;5031466;28;20039;-83
2022/04/04 09:21:04;;;;;;;6.97;4.20;;;8.20;66.80;;;;;;5013744;28;20032;-82
2022/04/04 09:23:35;;;;;;;6.55;3.90;;;8.30;65.80;;;;;;5019295;28;20022;-81
2022/04/04 09:26:04;;;;;;;6.30;4.32;;;8.40;65.40;;;;;;5033377;28;20041;-83
2022/04/04 09:28:30;;;;;;;6.35;3.53;;;8.40;65.00;;;;;;5020724;28;20029;-81
2022/04/04 09:31:10;;;;;;;6.72;3.78;;;8.60;65.00;;;;;;5026148;28;20040;-82
2022/04/04 09:33:36;;;;;;;5.47;3.67;;;8.80;63.90;;;;;;5027707;28;20053;-82
2022/04/04 09:36:04;;;;;;;5.03;3.53;;;8.80;63.60;;;;;;5034074;28;20031;-84
2022/04/04 09:38:33;;;;;;;5.55;3.80;;;8.90;64.00;;;;;;5026017;28;20030;-81
2022/04/04 09:41:13;;;;;;;6.40;3.55;;;8.90;62.40;;;;;;5023849;28;20033;-84
2022/04/04 09:43:50;;;;;;;6.40;3.70;;;9.00;63.10;;;;;;5046108;28;20043;-86
2022/04/04 09:46:16;;;;;;;4.85;3.00;;;9.20;62.30;;;;;;5033064;28;20022;-83
2022/04/04 09:49:16;;;;;;;4.75;2.60;;;9.20;58.80;;;;;;5029481;28;20032;-82
2022/04/04 09:51:50;;;;;;;6.60;2.80;;;9.20;59.20;;;;;;5021035;28;20017;-83
2022/04/04 09:54:29;;;;;;;5.30;3.55;;;9.10;58.90;;;;;;5047813;28;20064;-82
2022/04/04 09:57:13;;;;;;;4.80;2.63;;;9.20;59.60;;;;;;5028594;28;20018;-82
2022/04/04 09:59:41;;;;;;;3.97;2.60;;;9.00;59.20;;;;;;5017309;28;20029;-82
2022/04/04 10:02:08;;;;;;;4.55;2.90;;;9.20;58.50;;;;;;5011091;28;20034;-82
2022/04/04 10:04:34;;;;;;;5.30;3.03;;;9.30;57.90;;;;;;5004974;28;20037;-85
2022/04/04 10:07:07;;;;;;;4.85;3.10;;;9.40;57.70;;;;;;5020748;28;20051;-85
2022/04/04 10:09:35;;;;;;;3.70;2.75;;;9.30;56.70;;;;;;5037219;28;20037;-83
2022/04/04 10:12:05;;;;;;;5.60;3.25;;;9.50;57.50;;;;;;5025453;28;20036;-85
2022/04/04 10:14:36;;;;;;;4.95;3.30;;;9.70;57.20;;;;;;5043510;28;20116;-86
2022/04/04 10:17:38;;;;;;;4.78;3.53;;;9.60;57.10;;;;;;5041634;28;20047;-87
2022/04/04 10:20:06;;;;;;;4.63;2.65;;;9.70;57.30;;;;;;5015195;28;20030;-82
2022/04/04 10:22:59;;;;;;;4.45;2.88;;;8.50;55.80;;;;;;5026848;28;20045;-83
2022/04/04 10:26:07;;;;;;;5.97;2.90;;;9.80;56.20;;;;;;5060228;28;20616;-81
2022/04/04 10:29:26;;;;;;;4.43;2.42;;;10.00;56.30;;;;;;5028508;28;20046;-84
2022/04/04 10:31:55;;;;;;;5.28;3.25;;;10.20;56.00;;;;;;5025960;28;20045;-85
2022/04/04 10:34:40;;;;;;;5.15;3.30;;;9.80;56.00;;;;;;5014094;28;20040;-87
2022/04/04 10:37:23;;;;;;;5.18;2.90;;;9.80;55.50;;;;;;5020436;28;20029;-82
2022/04/04 10:39:50;;;;;;;5.00;3.13;;;9.70;56.20;;;;;;5042412;28;20045;-84
2022/04/04 10:42:32;;;;;;;5.70;3.67;;;9.80;56.40;;;;;;5038989;28;20037;-83
2022/04/04 10:45:13;;;;;;;4.95;3.58;;;9.90;56.80;;;;;;5023782;28;20052;-85
2022/04/04 10:47:44;;;;;;;4.88;2.92;;;10.00;56.30;;;;;;5022565;28;20029;-85
2022/04/04 10:50:20;;;;;;;;;;;10.10;56.70;;;;;;5029827;28;20033;-83
2022/04/04 10:52:47;;;;;;;4.97;3.50;;;10.10;56.90;;;;;;5021707;28;19966;-85
2022/04/04 10:55:38;;;;;;;5.32;3.50;;;10.10;56.80;;;;;;5023252;28;20089;-83
2022/04/04 10:58:07;;;;;;;;;;;10.20;56.60;;;;;;5043147;28;20052;-85
2022/04/04 11:00:52;;;;;;;5.72;3.58;;;10.40;57.00;;;;;;5032208;28;19915;-83
2022/04/04 11:03:46;;;;;;;4.60;3.35;;;10.60;56.80;;;;;;5029855;28;20034;-85
2022/04/04 11:09:04;;;;;;;5.60;3.25;;;10.70;56.80;;;;;;5049940;28;20060;-91
2022/04/04 11:11:49;;;;;;;9.77;3.08;;;10.70;55.00;;;;;;5032855;28;20022;-81
2022/04/04 11:14:28;;;;;;;5.22;3.05;;;10.60;54.20;;;;;;5017822;28;20068;-86
2022/04/04 11:17:25;;;;;;;6.88;3.15;;;10.50;55.20;;;;;;5042376;28;20033;-85
2022/04/04 11:20:31;;;;;;;4.43;2.90;;;10.60;55.40;;;;;;5027914;28;20270;-84
2022/04/04 11:23:21;;;;;;;4.30;3.10;;;10.40;55.00;;;;;;5029471;28;20010;-83
2022/04/04 11:26:08;;;;;;;5.18;3.30;;;10.20;55.60;;;;;;5033405;28;20037;-87
2022/04/04 11:28:42;;;;;;;4.90;3.55;;;10.20;56.80;;;;;;5042682;28;20034;-83
2022/04/04 11:31:11;;;;;;;4.65;3.22;;;10.40;56.30;;;;;;5021788;28;20037;-83
2022/04/04 11:33:48;;;;;;;8.02;3.75;;;10.60;56.00;;;;;;5034585;28;20025;-84
2022/04/04 11:36:32;;;;;;;4.95;3.53;;;10.70;56.30;;;;;;5027881;28;20117;-84
2022/04/04 11:39:07;;;;;;;11.52;4.10;;;10.70;55.80;;;;;;5040095;28;20041;-88
2022/04/04 11:41:39;;;;;;;4.38;3.10;;;10.90;56.10;;;;;;5018189;28;20041;-83
2022/04/04 11:44:07;;;;;;;6.50;3.80;;;10.60;55.90;;;;;;5011490;28;20037;-80
2022/04/04 11:46:34;;;;;;;6.57;3.80;;;10.20;56.40;;;;;;5032455;28;20049;-84
2022/04/04 11:49:09;;;;;;;7.35;3.55;;;10.00;57.00;;;;;;5037199;28;20482;-81
2022/04/04 11:51:36;;;;;;;5.20;3.25;;;10.10;57.20;;;;;;4971310;28;20037;-86
2022/04/04 11:54:44;;;;;;;6.68;3.65;;;10.20;57.00;;;;;;5030153;28;20033;-82
2022/04/04 12:01:09;;;;;;;6.13;3.67;;;10.40;56.00;;;;;;5027014;28;20088;-83
2022/04/04 12:03:43;;;;;;;5.97;3.70;;;10.60;56.10;;;;;;5034838;28;20112;-84
2022/04/04 12:06:54;;;;;;;5.72;3.42;;;10.70;55.30;;;;;;5015774;28;20038;-85
2022/04/04 12:10:17;;;;;;;5.80;3.70;;;10.80;55.40;;;;;;5039300;28;20045;-86
2022/04/04 12:14:01;;;;;;;5.43;3.70;;;10.80;55.20;;;;;;4973595;28;20046;-82
2022/04/04 12:17:14;;;;;;;5.95;4.30;;;10.80;55.90;;;;;;5005675;28;20413;-84
2022/04/04 12:19:44;;;;;;;5.53;4.18;;;11.00;56.10;;;;;;5021692;28;20102;-81
2022/04/04 12:25:21;;;;;;;6.80;3.90;;;11.10;54.90;;;;;;5018035;28;20075;-85
2022/04/04 12:28:21;;;;;;;5.38;3.70;;;11.10;55.30;;;;;;5025324;28;20053;-85
2022/04/04 12:30:47;;;;;;;7.40;3.97;;;11.10;54.90;;;;;;5028738;28;20040;-82
2022/04/04 12:33:17;;;;;;;9.98;4.20;;;11.10;55.10;;;;;;5025985;28;20029;-83
2022/04/04 12:35:49;;;;;;;5.83;4.00;;;11.30;54.20;;;;;;5021064;28;20040;-86
2022/04/04 12:38:57;;;;;;;7.03;3.78;;;11.20;54.50;;;;;;5050520;28;20033;-84
2022/04/04 12:41:24;;;;;;;6.50;3.75;;;11.50;53.80;;;;;;5019962;28;20031;-83
2022/04/04 12:44:06;;;;;;;5.90;4.00;;;11.20;53.50;;;;;;5030448;28;20025;-85
2022/04/04 12:46:35;;;;;;;6.60;3.78;;;11.20;53.40;;;;;;5042774;28;20032;-82
2022/04/04 12:49:21;;;;;;;6.13;4.72;;;10.90;54.30;;;;;;5038966;28;20041;-84
2022/04/04 12:51:58;;;;;;;4.10;2.90;;;10.80;55.10;;;;;;5015804;28;20030;-82
2022/04/04 12:54:27;;;;;;;7.57;3.55;;;10.70;54.90;;;;;;5016827;28;20079;-82
2022/04/04 12:56:54;;;;;;;6.53;3.92;;;10.80;54.70;;;;;;5020622;28;20037;-83
2022/04/04 12:59:22;;;;;;;5.28;3.70;;;10.70;54.80;;;;;;5037384;28;20033;-83
2022/04/04 13:02:05;;;;;;;5.68;3.85;;;10.70;54.00;;;;;;5011087;28;20026;-84
2022/04/04 13:04:32;;;;;;;8.05;4.47;;;10.80;54.00;;;;;;5005327;28;20112;-82
2022/04/04 13:07:02;;;;;;;9.10;4.22;;;10.80;54.10;;;;;;5024656;28;20029;-85
2022/04/04 13:09:29;;;;;;;6.22;4.28;;;10.90;54.80;;;;;;5016635;28;20044;-84
2022/04/04 13:11:56;;;;;;;6.72;4.25;;;10.80;53.90;;;;;;5015027;28;20030;-82
2022/04/04 13:14:24;;;;;;;6.60;3.88;;;10.70;54.10;;;;;;5018528;28;20032;-83
2022/04/04 13:16:56;;;;;;;6.60;4.00;;;10.80;55.10;;;;;;5022866;28;20115;-83
2022/04/04 13:19:23;;;;;;;7.78;4.32;;;10.80;55.00;;;;;;5013570;28;20032;-82
2022/04/04 13:21:51;;;;;;;4.30;3.60;;;10.70;54.10;;;;;;5020487;28;20025;-81
2022/04/04 13:24:18;;;;;;;9.77;4.38;;;10.70;54.80;;;;;;5015234;28;20040;-85
2022/04/04 13:26:48;;;;;;;6.20;4.63;;;10.50;55.30;;;;;;5017131;28;20111;-82
2022/04/04 13:29:16;;;;;;;8.05;4.18;;;10.60;55.10;;;;;;5010368;28;20501;-82
2022/04/04 13:31:43;;;;;;;8.23;4.32;;;10.70;54.40;;;;;;5012454;28;20121;-82
2022/04/04 13:34:10;;;;;;;6.88;4.32;;;10.60;54.70;;;;;;5014658;28;20033;-85
2022/04/04 13:36:37;;;;;;;6.28;4.20;;;10.60;54.70;;;;;;5017641;28;20021;-82
2022/04/04 13:39:05;;;;;;;6.50;3.92;;;10.70;55.50;;;;;;5018091;28;20116;-85
2022/04/04 13:41:33;;;;;;;6.70;4.47;;;10.80;55.10;;;;;;5013284;28;20025;-82
2022/04/04 13:44:00;;;;;;;6.88;4.78;;;10.60;55.30;;;;;;5015432;28;20032;-82
2022/04/04 13:46:28;;;;;;;6.95;4.13;;;10.60;55.60;;;;;;5016448;28;20080;-82
2022/04/04 13:48:56;;;;;;;5.55;4.70;;;10.60;55.30;;;;;;5024068;28;20031;-82
2022/04/04 13:51:25;;;;;;;7.75;4.85;;;10.60;55.80;;;;;;5014054;28;20080;-83